sensor_id;sensor_type;location;lat;lon;timestamp;temperature;humidity
75782;DHT22;64400;44.762;37.698;2022-12-24T00:02:21;4.80;100.72
75782;DHT22;64400;44.762;37.698;2022-12-24T00:05:11;4.77;100.79
75782;DHT22;64400;44.762;37.698;2022-12-24T00:07:59;4.78;100.54
75782;DHT22;64400;44.762;37.698;2022-12-24T00:10:28;4.77;100.51
75782;DHT22;64400;44.762;37.698;2022-12-24T00:13:18;4.76;100.45
75782;DHT22;64400;44.762;37.698;2022-12-24T00:16:06;4.75;100.19
75782;DHT22;64400;44.762;37.698;2022-12-24T00:18:56;4.76;102.71
75782;DHT22;64400;44.762;37.698;2022-12-24T00:21:25;4.78;103.44
75782;DHT22;64400;44.762;37.698;2022-12-24T00:24:13;4.84;103.67
75782;DHT22;64400;44.762;37.698;2022-12-24T00:27:02;4.81;101.81
75782;DHT22;64400;44.762;37.698;2022-12-24T00:29:36;4.83;103.56
75782;DHT22;64400;44.762;37.698;2022-12-24T00:32:24;4.84;102.13
75782;DHT22;64400;44.762;37.698;2022-12-24T00:35:16;4.89;102.96
75782;DHT22;64400;44.762;37.698;2022-12-24T00:38:05;4.88;101.43
75782;DHT22;64400;44.762;37.698;2022-12-24T00:40:34;4.90;103.66
75782;DHT22;64400;44.762;37.698;2022-12-24T00:43:22;4.95;104.90
75782;DHT22;64400;44.762;37.698;2022-12-24T00:46:11;5.04;106.11
75782;DHT22;64400;44.762;37.698;2022-12-24T00:49:00;5.07;104.84
75782;DHT22;64400;44.762;37.698;2022-12-24T00:51:48;5.07;103.59
75782;DHT22;64400;44.762;37.698;2022-12-24T00:54:40;5.02;100.83
75782;DHT22;64400;44.762;37.698;2022-12-24T00:57:30;4.95;99.51
75782;DHT22;64400;44.762;37.698;2022-12-24T01:00:18;4.84;99.31
75782;DHT22;64400;44.762;37.698;2022-12-24T01:03:07;4.77;99.83
75782;DHT22;64400;44.762;37.698;2022-12-24T01:05:36;4.71;99.88
75782;DHT22;64400;44.762;37.698;2022-12-24T01:08:25;4.63;100.09
75782;DHT22;64400;44.762;37.698;2022-12-24T01:11:14;4.57;101.17
75782;DHT22;64400;44.762;37.698;2022-12-24T01:13:55;4.52;101.71
75782;DHT22;64400;44.762;37.698;2022-12-24T01:16:44;4.49;102.66
75782;DHT22;64400;44.762;37.698;2022-12-24T01:19:32;4.46;101.77
75782;DHT22;64400;44.762;37.698;2022-12-24T01:22:12;4.45;101.79
75782;DHT22;64400;44.762;37.698;2022-12-24T01:24:42;4.47;103.59
75782;DHT22;64400;44.762;37.698;2022-12-24T01:27:32;4.49;103.66
75782;DHT22;64400;44.762;37.698;2022-12-24T01:30:12;4.61;105.57
75782;DHT22;64400;44.762;37.698;2022-12-24T01:32:55;4.63;104.20
75782;DHT22;64400;44.762;37.698;2022-12-24T01:35:44;4.65;103.12
75782;DHT22;64400;44.762;37.698;2022-12-24T01:38:32;4.63;103.05
75782;DHT22;64400;44.762;37.698;2022-12-24T01:41:22;4.63;104.55
75782;DHT22;64400;44.762;37.698;2022-12-24T01:44:33;4.68;103.70
75782;DHT22;64400;44.762;37.698;2022-12-24T01:47:27;4.73;104.51
75782;DHT22;64400;44.762;37.698;2022-12-24T01:50:16;4.88;106.93
75782;DHT22;64400;44.762;37.698;2022-12-24T01:52:57;4.91;105.50
75782;DHT22;64400;44.762;37.698;2022-12-24T01:55:46;4.93;104.00
75782;DHT22;64400;44.762;37.698;2022-12-24T01:58:20;4.93;102.95
75782;DHT22;64400;44.762;37.698;2022-12-24T02:01:09;4.92;103.67
75782;DHT22;64400;44.762;37.698;2022-12-24T02:03:58;4.94;104.05
75782;DHT22;64400;44.762;37.698;2022-12-24T02:06:47;4.90;103.15
75782;DHT22;64400;44.762;37.698;2022-12-24T02:09:38;4.94;104.86
75782;DHT22;64400;44.762;37.698;2022-12-24T02:12:31;4.94;103.07
75782;DHT22;64400;44.762;37.698;2022-12-24T02:15:05;4.89;103.05
75782;DHT22;64400;44.762;37.698;2022-12-24T02:35:42;5.30;106.08
75782;DHT22;64400;44.762;37.698;2022-12-24T02:41:16;5.42;105.53
75782;DHT22;64400;44.762;37.698;2022-12-24T02:44:05;5.45;105.66
75782;DHT22;64400;44.762;37.698;2022-12-24T02:46:34;5.51;105.46
75782;DHT22;64400;44.762;37.698;2022-12-24T02:49:23;5.48;103.60
75782;DHT22;64400;44.762;37.698;2022-12-24T02:55:11;5.45;103.66
75782;DHT22;64400;44.762;37.698;2022-12-24T02:58:36;5.42;104.23
75782;DHT22;64400;44.762;37.698;2022-12-24T03:04:23;5.54;106.54
75782;DHT22;64400;44.762;37.698;2022-12-24T03:07:28;5.60;105.60
75782;DHT22;64400;44.762;37.698;2022-12-24T03:10:17;5.69;106.00
75782;DHT22;64400;44.762;37.698;2022-12-24T03:13:14;5.86;107.66
75782;DHT22;64400;44.762;37.698;2022-12-24T03:16:05;6.01;107.45
75782;DHT22;64400;44.762;37.698;2022-12-24T03:18:55;6.09;106.63
75782;DHT22;64400;44.762;37.698;2022-12-24T03:21:47;6.08;104.99
75782;DHT22;64400;44.762;37.698;2022-12-24T03:24:37;6.14;105.77
75782;DHT22;64400;44.762;37.698;2022-12-24T03:27:29;6.20;105.08
75782;DHT22;64400;44.762;37.698;2022-12-24T03:30:19;6.22;105.79
75782;DHT22;64400;44.762;37.698;2022-12-24T03:33:09;6.26;105.38
75782;DHT22;64400;44.762;37.698;2022-12-24T03:35:58;6.27;105.05
75782;DHT22;64400;44.762;37.698;2022-12-24T03:38:46;6.28;104.03
75782;DHT22;64400;44.762;37.698;2022-12-24T03:41:37;6.28;103.37
75782;DHT22;64400;44.762;37.698;2022-12-24T03:44:26;6.26;102.84
75782;DHT22;64400;44.762;37.698;2022-12-24T03:47:14;6.24;102.53
75782;DHT22;64400;44.762;37.698;2022-12-24T03:50:03;6.23;103.15
75782;DHT22;64400;44.762;37.698;2022-12-24T03:52:53;6.20;102.99
75782;DHT22;64400;44.762;37.698;2022-12-24T03:55:42;6.24;103.58
75782;DHT22;64400;44.762;37.698;2022-12-24T03:58:30;6.26;103.89
75782;DHT22;64400;44.762;37.698;2022-12-24T04:01:19;6.33;104.25
75782;DHT22;64400;44.762;37.698;2022-12-24T04:04:08;6.38;104.01
75782;DHT22;64400;44.762;37.698;2022-12-24T04:06:56;6.39;104.92
75782;DHT22;64400;44.762;37.698;2022-12-24T04:09:45;6.48;106.17
75782;DHT22;64400;44.762;37.698;2022-12-24T04:12:33;6.56;106.00
75782;DHT22;64400;44.762;37.698;2022-12-24T04:15:22;6.72;106.09
75782;DHT22;64400;44.762;37.698;2022-12-24T04:18:10;6.76;105.28
75782;DHT22;64400;44.762;37.698;2022-12-24T04:20:42;6.78;105.10
75782;DHT22;64400;44.762;37.698;2022-12-24T04:23:32;6.79;104.34
75782;DHT22;64400;44.762;37.698;2022-12-24T04:26:22;6.87;104.63
75782;DHT22;64400;44.762;37.698;2022-12-24T04:29:10;6.85;103.25
75782;DHT22;64400;44.762;37.698;2022-12-24T04:31:59;6.90;103.97
75782;DHT22;64400;44.762;37.698;2022-12-24T04:34:48;6.93;103.96
75782;DHT22;64400;44.762;37.698;2022-12-24T04:37:36;6.88;102.66
75782;DHT22;64400;44.762;37.698;2022-12-24T04:40:25;6.70;104.31
75782;DHT22;64400;44.762;37.698;2022-12-24T04:43:13;6.74;104.33
75782;DHT22;64400;44.762;37.698;2022-12-24T04:46:10;6.83;104.00
75782;DHT22;64400;44.762;37.698;2022-12-24T04:48:59;6.82;102.49
75782;DHT22;64400;44.762;37.698;2022-12-24T04:51:48;6.82;101.88
75782;DHT22;64400;44.762;37.698;2022-12-24T04:54:37;6.86;101.24
75782;DHT22;64400;44.762;37.698;2022-12-24T04:57:26;6.98;100.08
75782;DHT22;64400;44.762;37.698;2022-12-24T04:59:58;7.01;100.01
75782;DHT22;64400;44.762;37.698;2022-12-24T05:02:46;7.07;99.40
75782;DHT22;64400;44.762;37.698;2022-12-24T05:05:35;7.12;99.19
75782;DHT22;64400;44.762;37.698;2022-12-24T05:08:24;7.09;99.16
75782;DHT22;64400;44.762;37.698;2022-12-24T05:11:14;7.05;99.29
75782;DHT22;64400;44.762;37.698;2022-12-24T05:14:04;7.03;100.10
75782;DHT22;64400;44.762;37.698;2022-12-24T05:16:53;7.00;100.18
75782;DHT22;64400;44.762;37.698;2022-12-24T05:19:41;6.95;100.67
75782;DHT22;64400;44.762;37.698;2022-12-24T05:22:31;6.95;100.54
75782;DHT22;64400;44.762;37.698;2022-12-24T05:25:38;6.95;100.30
75782;DHT22;64400;44.762;37.698;2022-12-24T05:28:27;6.89;100.57
75782;DHT22;64400;44.762;37.698;2022-12-24T05:31:01;6.87;100.79
75782;DHT22;64400;44.762;37.698;2022-12-24T05:33:34;6.88;101.34
75782;DHT22;64400;44.762;37.698;2022-12-24T05:36:24;6.91;101.44
75782;DHT22;64400;44.762;37.698;2022-12-24T05:39:17;6.97;100.97
75782;DHT22;64400;44.762;37.698;2022-12-24T05:42:05;7.02;100.59
75782;DHT22;64400;44.762;37.698;2022-12-24T05:44:57;7.05;100.66
75782;DHT22;64400;44.762;37.698;2022-12-24T05:47:46;7.11;100.74
75782;DHT22;64400;44.762;37.698;2022-12-24T05:50:38;7.18;100.22
75782;DHT22;64400;44.762;37.698;2022-12-24T05:53:27;7.26;99.83
75782;DHT22;64400;44.762;37.698;2022-12-24T05:56:23;7.31;100.04
75782;DHT22;64400;44.762;37.698;2022-12-24T05:59:12;7.33;100.17
75782;DHT22;64400;44.762;37.698;2022-12-24T06:02:00;7.41;99.71
75782;DHT22;64400;44.762;37.698;2022-12-24T06:04:38;7.44;99.59
75782;DHT22;64400;44.762;37.698;2022-12-24T06:07:27;7.49;99.18
75782;DHT22;64400;44.762;37.698;2022-12-24T06:10:15;7.56;98.97
75782;DHT22;64400;44.762;37.698;2022-12-24T06:13:04;7.60;98.67
75782;DHT22;64400;44.762;37.698;2022-12-24T06:15:57;7.67;98.46
75782;DHT22;64400;44.762;37.698;2022-12-24T06:18:46;7.69;99.65
75782;DHT22;64400;44.762;37.698;2022-12-24T06:21:35;7.70;99.99
75782;DHT22;64400;44.762;37.698;2022-12-24T06:24:24;7.71;100.25
75782;DHT22;64400;44.762;37.698;2022-12-24T06:27:13;7.70;100.73
75782;DHT22;64400;44.762;37.698;2022-12-24T06:30:02;7.78;99.06
75782;DHT22;64400;44.762;37.698;2022-12-24T06:32:54;7.87;99.46
75782;DHT22;64400;44.762;37.698;2022-12-24T06:35:44;8.00;98.71
75782;DHT22;64400;44.762;37.698;2022-12-24T06:38:34;8.23;96.71
75782;DHT22;64400;44.762;37.698;2022-12-24T06:41:23;8.45;95.37
75782;DHT22;64400;44.762;37.698;2022-12-24T06:44:11;8.61;94.49
75782;DHT22;64400;44.762;37.698;2022-12-24T06:46:54;8.66;94.88
75782;DHT22;64400;44.762;37.698;2022-12-24T06:49:43;8.73;93.85
75782;DHT22;64400;44.762;37.698;2022-12-24T06:52:31;8.86;93.24
75782;DHT22;64400;44.762;37.698;2022-12-24T06:55:10;8.95;93.75
75782;DHT22;64400;44.762;37.698;2022-12-24T06:57:59;9.05;92.40
75782;DHT22;64400;44.762;37.698;2022-12-24T07:00:34;9.14;92.65
75782;DHT22;64400;44.762;37.698;2022-12-24T07:03:24;9.20;92.53
75782;DHT22;64400;44.762;37.698;2022-12-24T07:06:19;9.27;91.61
75782;DHT22;64400;44.762;37.698;2022-12-24T07:09:12;9.36;91.57
75782;DHT22;64400;44.762;37.698;2022-12-24T07:11:42;9.42;91.29
75782;DHT22;64400;44.762;37.698;2022-12-24T07:14:32;9.49;91.39
75782;DHT22;64400;44.762;37.698;2022-12-24T07:17:20;9.56;93.92
75782;DHT22;64400;44.762;37.698;2022-12-24T07:20:11;9.61;95.59
75782;DHT22;64400;44.762;37.698;2022-12-24T07:23:00;9.65;95.39
75782;DHT22;64400;44.762;37.698;2022-12-24T07:25:49;9.67;95.14
75782;DHT22;64400;44.762;37.698;2022-12-24T07:28:38;9.67;95.17
75782;DHT22;64400;44.762;37.698;2022-12-24T07:31:27;9.69;96.29
75782;DHT22;64400;44.762;37.698;2022-12-24T07:34:47;9.60;96.91
75782;DHT22;64400;44.762;37.698;2022-12-24T07:37:36;9.54;96.62
75782;DHT22;64400;44.762;37.698;2022-12-24T07:40:24;9.50;97.08
75782;DHT22;64400;44.762;37.698;2022-12-24T07:43:14;9.46;96.65
75782;DHT22;64400;44.762;37.698;2022-12-24T07:46:02;9.42;96.58
75782;DHT22;64400;44.762;37.698;2022-12-24T07:48:51;9.40;96.15
75782;DHT22;64400;44.762;37.698;2022-12-24T07:51:39;9.36;94.30
75782;DHT22;64400;44.762;37.698;2022-12-24T07:54:10;9.36;94.27
75782;DHT22;64400;44.762;37.698;2022-12-24T08:04:44;9.25;94.86
75782;DHT22;64400;44.762;37.698;2022-12-24T08:07:13;9.30;94.59
75782;DHT22;64400;44.762;37.698;2022-12-24T08:10:37;9.34;94.53
75782;DHT22;64400;44.762;37.698;2022-12-24T08:13:26;9.40;94.70
75782;DHT22;64400;44.762;37.698;2022-12-24T08:15:58;9.44;95.35
75782;DHT22;64400;44.762;37.698;2022-12-24T08:19:10;9.46;94.86
75782;DHT22;64400;44.762;37.698;2022-12-24T08:21:46;9.67;95.71
75782;DHT22;64400;44.762;37.698;2022-12-24T08:24:56;10.93;90.84
75782;DHT22;64400;44.762;37.698;2022-12-24T08:29:02;11.97;85.27
75782;DHT22;64400;44.762;37.698;2022-12-24T08:31:44;11.55;87.20
75782;DHT22;64400;44.762;37.698;2022-12-24T08:34:22;11.32;88.89
75782;DHT22;64400;44.762;37.698;2022-12-24T08:37:06;11.16;89.08
75782;DHT22;64400;44.762;37.698;2022-12-24T08:39:54;11.11;89.49
75782;DHT22;64400;44.762;37.698;2022-12-24T08:42:23;11.10;89.58
75782;DHT22;64400;44.762;37.698;2022-12-24T08:45:12;11.00;90.34
75782;DHT22;64400;44.762;37.698;2022-12-24T08:53:42;12.70;84.35
75782;DHT22;64400;44.762;37.698;2022-12-24T08:58:09;13.04;82.04
75782;DHT22;64400;44.762;37.698;2022-12-24T09:00:50;12.99;82.33
75782;DHT22;64400;44.762;37.698;2022-12-24T09:03:32;12.97;81.06
75782;DHT22;64400;44.762;37.698;2022-12-24T09:06:14;12.80;80.65
75782;DHT22;64400;44.762;37.698;2022-12-24T09:09:06;12.46;83.16
75782;DHT22;64400;44.762;37.698;2022-12-24T09:11:36;12.47;82.13
75782;DHT22;64400;44.762;37.698;2022-12-24T09:14:35;12.12;83.29
75782;DHT22;64400;44.762;37.698;2022-12-24T09:17:54;11.91;84.16
75782;DHT22;64400;44.762;37.698;2022-12-24T09:20:23;11.77;84.62
75782;DHT22;64400;44.762;37.698;2022-12-24T09:23:12;11.72;85.62
75782;DHT22;64400;44.762;37.698;2022-12-24T09:26:51;11.57;85.88
75782;DHT22;64400;44.762;37.698;2022-12-24T09:29:40;11.49;86.17
75782;DHT22;64400;44.762;37.698;2022-12-24T09:34:24;11.53;86.40
75782;DHT22;64400;44.762;37.698;2022-12-24T09:37:44;11.76;84.18
75782;DHT22;64400;44.762;37.698;2022-12-24T09:40:38;11.90;84.23
75782;DHT22;64400;44.762;37.698;2022-12-24T09:43:30;11.85;83.68
75782;DHT22;64400;44.762;37.698;2022-12-24T09:46:28;11.66;84.30
75782;DHT22;64400;44.762;37.698;2022-12-24T09:49:21;11.60;83.74
75782;DHT22;64400;44.762;37.698;2022-12-24T09:52:14;11.51;83.61
75782;DHT22;64400;44.762;37.698;2022-12-24T09:55:47;11.75;82.41
75782;DHT22;64400;44.762;37.698;2022-12-24T09:58:37;12.20;81.27
75782;DHT22;64400;44.762;37.698;2022-12-24T10:01:32;12.07;81.49
75782;DHT22;64400;44.762;37.698;2022-12-24T10:04:25;11.96;81.14
75782;DHT22;64400;44.762;37.698;2022-12-24T10:13:40;11.79;81.64
75782;DHT22;64400;44.762;37.698;2022-12-24T10:23:34;11.60;81.17
75782;DHT22;64400;44.762;37.698;2022-12-24T10:31:34;11.66;81.02
75782;DHT22;64400;44.762;37.698;2022-12-24T10:34:22;11.72;80.62
75782;DHT22;64400;44.762;37.698;2022-12-24T10:37:05;11.79;80.25
75782;DHT22;64400;44.762;37.698;2022-12-24T10:41:34;11.85;79.77
75782;DHT22;64400;44.762;37.698;2022-12-24T10:44:19;11.73;80.50
75782;DHT22;64400;44.762;37.698;2022-12-24T10:47:02;11.62;80.88
75782;DHT22;64400;44.762;37.698;2022-12-24T10:52:32;11.41;81.91
75782;DHT22;64400;44.762;37.698;2022-12-24T10:58:13;11.26;82.14
75782;DHT22;64400;44.762;37.698;2022-12-24T11:01:03;11.22;82.66
75782;DHT22;64400;44.762;37.698;2022-12-24T11:04:58;11.13;82.38
75782;DHT22;64400;44.762;37.698;2022-12-24T11:08:05;11.18;82.97
75782;DHT22;64400;44.762;37.698;2022-12-24T11:10:56;11.20;82.93
75782;DHT22;64400;44.762;37.698;2022-12-24T11:17:21;11.23;81.91
75782;DHT22;64400;44.762;37.698;2022-12-24T11:20:17;11.25;81.74
75782;DHT22;64400;44.762;37.698;2022-12-24T11:23:14;11.19;81.98
75782;DHT22;64400;44.762;37.698;2022-12-24T11:26:04;11.15;81.58
75782;DHT22;64400;44.762;37.698;2022-12-24T11:29:30;11.09;81.38
75782;DHT22;64400;44.762;37.698;2022-12-24T11:32:30;11.04;81.79
75782;DHT22;64400;44.762;37.698;2022-12-24T11:36:05;11.07;82.21
75782;DHT22;64400;44.762;37.698;2022-12-24T11:38:57;10.99;81.91
75782;DHT22;64400;44.762;37.698;2022-12-24T11:41:35;10.99;82.20
75782;DHT22;64400;44.762;37.698;2022-12-24T11:44:26;10.97;81.88
75782;DHT22;64400;44.762;37.698;2022-12-24T11:47:31;10.98;82.72
75782;DHT22;64400;44.762;37.698;2022-12-24T11:50:30;10.95;82.35
75782;DHT22;64400;44.762;37.698;2022-12-24T11:53:23;10.90;82.62
75782;DHT22;64400;44.762;37.698;2022-12-24T11:56:46;10.92;83.32
75782;DHT22;64400;44.762;37.698;2022-12-24T12:01:50;10.96;83.23
75782;DHT22;64400;44.762;37.698;2022-12-24T12:04:37;10.97;82.91
75782;DHT22;64400;44.762;37.698;2022-12-24T12:07:35;10.97;83.22
75782;DHT22;64400;44.762;37.698;2022-12-24T12:10:55;11.05;83.62
75782;DHT22;64400;44.762;37.698;2022-12-24T12:13:59;11.03;82.32
75782;DHT22;64400;44.762;37.698;2022-12-24T12:17:02;10.99;83.10
75782;DHT22;64400;44.762;37.698;2022-12-24T12:20:20;10.97;83.16
75782;DHT22;64400;44.762;37.698;2022-12-24T12:24:50;10.92;83.13
75782;DHT22;64400;44.762;37.698;2022-12-24T12:27:43;10.89;81.81
75782;DHT22;64400;44.762;37.698;2022-12-24T12:30:34;10.89;82.67
75782;DHT22;64400;44.762;37.698;2022-12-24T12:35:37;10.92;83.29
75782;DHT22;64400;44.762;37.698;2022-12-24T12:38:27;10.87;83.71
75782;DHT22;64400;44.762;37.698;2022-12-24T12:48:09;10.83;84.58
75782;DHT22;64400;44.762;37.698;2022-12-24T12:54:35;10.82;85.25
75782;DHT22;64400;44.762;37.698;2022-12-24T12:57:33;10.82;85.64
75782;DHT22;64400;44.762;37.698;2022-12-24T13:00:25;10.82;85.90
75782;DHT22;64400;44.762;37.698;2022-12-24T13:18:58;10.72;88.29
75782;DHT22;64400;44.762;37.698;2022-12-24T13:21:30;10.70;88.54
75782;DHT22;64400;44.762;37.698;2022-12-24T13:24:28;10.70;88.65
75782;DHT22;64400;44.762;37.698;2022-12-24T13:27:23;10.69;89.42
75782;DHT22;64400;44.762;37.698;2022-12-24T13:30:35;10.68;89.78
75782;DHT22;64400;44.762;37.698;2022-12-24T13:36:24;10.59;90.55
75782;DHT22;64400;44.762;37.698;2022-12-24T13:39:19;10.58;90.53
75782;DHT22;64400;44.762;37.698;2022-12-24T13:41:55;10.53;90.63
75782;DHT22;64400;44.762;37.698;2022-12-24T13:44:44;10.53;90.66
75782;DHT22;64400;44.762;37.698;2022-12-24T13:47:41;10.50;90.62
75782;DHT22;64400;44.762;37.698;2022-12-24T13:50:21;10.48;90.91
75782;DHT22;64400;44.762;37.698;2022-12-24T13:53:31;10.46;91.18
75782;DHT22;64400;44.762;37.698;2022-12-24T13:58:17;10.40;91.28
75782;DHT22;64400;44.762;37.698;2022-12-24T14:04:33;10.31;91.85
75782;DHT22;64400;44.762;37.698;2022-12-24T14:07:23;10.34;91.71
75782;DHT22;64400;44.762;37.698;2022-12-24T14:10:23;10.30;91.82
75782;DHT22;64400;44.762;37.698;2022-12-24T14:13:01;10.31;91.93
75782;DHT22;64400;44.762;37.698;2022-12-24T14:18:01;10.27;91.96
75782;DHT22;64400;44.762;37.698;2022-12-24T14:20:50;10.24;92.11
75782;DHT22;64400;44.762;37.698;2022-12-24T14:23:56;10.23;92.21
75782;DHT22;64400;44.762;37.698;2022-12-24T14:26:57;10.21;92.38
75782;DHT22;64400;44.762;37.698;2022-12-24T14:32:53;10.21;92.29
75782;DHT22;64400;44.762;37.698;2022-12-24T14:36:18;10.24;92.06
75782;DHT22;64400;44.762;37.698;2022-12-24T14:39:21;10.25;92.03
75782;DHT22;64400;44.762;37.698;2022-12-24T14:42:31;10.27;91.69
75782;DHT22;64400;44.762;37.698;2022-12-24T14:45:33;10.29;91.56
75782;DHT22;64400;44.762;37.698;2022-12-24T14:48:34;10.28;91.82
75782;DHT22;64400;44.762;37.698;2022-12-24T14:54:34;10.31;91.51
75782;DHT22;64400;44.762;37.698;2022-12-24T14:57:25;10.30;91.60
75782;DHT22;64400;44.762;37.698;2022-12-24T15:00:45;10.35;91.23
75782;DHT22;64400;44.762;37.698;2022-12-24T15:06:58;10.34;91.40
75782;DHT22;64400;44.762;37.698;2022-12-24T15:09:50;10.30;91.46
75782;DHT22;64400;44.762;37.698;2022-12-24T15:13:40;10.34;91.15
75782;DHT22;64400;44.762;37.698;2022-12-24T15:16:33;10.33;91.05
75782;DHT22;64400;44.762;37.698;2022-12-24T15:19:26;10.37;90.34
75782;DHT22;64400;44.762;37.698;2022-12-24T15:22:22;10.36;90.99
75782;DHT22;64400;44.762;37.698;2022-12-24T15:25:23;10.25;91.62
75782;DHT22;64400;44.762;37.698;2022-12-24T15:28:21;10.29;90.97
75782;DHT22;64400;44.762;37.698;2022-12-24T15:31:41;10.18;91.90
75782;DHT22;64400;44.762;37.698;2022-12-24T15:34:28;10.05;92.40
75782;DHT22;64400;44.762;37.698;2022-12-24T15:37:19;9.89;93.01
75782;DHT22;64400;44.762;37.698;2022-12-24T15:40:19;9.82;93.43
75782;DHT22;64400;44.762;37.698;2022-12-24T15:43:08;9.83;93.23
75782;DHT22;64400;44.762;37.698;2022-12-24T15:45:42;9.88;93.08
75782;DHT22;64400;44.762;37.698;2022-12-24T15:48:32;9.88;92.95
75782;DHT22;64400;44.762;37.698;2022-12-24T15:53:28;9.86;93.20
75782;DHT22;64400;44.762;37.698;2022-12-24T15:56:43;9.85;92.94
75782;DHT22;64400;44.762;37.698;2022-12-24T15:59:34;9.80;93.11
75782;DHT22;64400;44.762;37.698;2022-12-24T16:02:40;9.80;93.11
75782;DHT22;64400;44.762;37.698;2022-12-24T16:05:33;9.71;93.60
75782;DHT22;64400;44.762;37.698;2022-12-24T16:08:24;9.67;94.26
75782;DHT22;64400;44.762;37.698;2022-12-24T16:12:41;9.72;93.68
75782;DHT22;64400;44.762;37.698;2022-12-24T16:15:13;9.76;92.99
75782;DHT22;64400;44.762;37.698;2022-12-24T16:17:47;9.76;92.13
75782;DHT22;64400;44.762;37.698;2022-12-24T16:20:20;9.77;93.20
75782;DHT22;64400;44.762;37.698;2022-12-24T16:22:49;9.56;93.72
75782;DHT22;64400;44.762;37.698;2022-12-24T16:27:50;9.52;93.15
75782;DHT22;64400;44.762;37.698;2022-12-24T16:30:19;9.53;93.58
75782;DHT22;64400;44.762;37.698;2022-12-24T16:32:48;9.51;93.69
75782;DHT22;64400;44.762;37.698;2022-12-24T16:35:29;9.39;94.59
75782;DHT22;64400;44.762;37.698;2022-12-24T16:37:59;9.35;94.97
75782;DHT22;64400;44.762;37.698;2022-12-24T16:40:28;9.37;94.62
75782;DHT22;64400;44.762;37.698;2022-12-24T16:42:56;9.38;94.49
75782;DHT22;64400;44.762;37.698;2022-12-24T16:45:44;9.29;95.25
75782;DHT22;64400;44.762;37.698;2022-12-24T16:48:19;9.29;95.19
75782;DHT22;64400;44.762;37.698;2022-12-24T16:50:48;9.27;95.41
75782;DHT22;64400;44.762;37.698;2022-12-24T16:53:18;9.20;95.43
75782;DHT22;64400;44.762;37.698;2022-12-24T16:55:47;9.21;95.85
75782;DHT22;64400;44.762;37.698;2022-12-24T16:58:18;9.22;95.76
75782;DHT22;64400;44.762;37.698;2022-12-24T17:00:46;9.18;95.50
75782;DHT22;64400;44.762;37.698;2022-12-24T17:03:14;9.17;95.99
75782;DHT22;64400;44.762;37.698;2022-12-24T17:05:43;9.16;95.99
75782;DHT22;64400;44.762;37.698;2022-12-24T17:08:12;9.15;96.22
75782;DHT22;64400;44.762;37.698;2022-12-24T17:10:49;9.19;95.60
75782;DHT22;64400;44.762;37.698;2022-12-24T17:13:17;9.20;95.63
75782;DHT22;64400;44.762;37.698;2022-12-24T17:15:45;9.22;94.81
75782;DHT22;64400;44.762;37.698;2022-12-24T17:18:13;9.24;93.66
75782;DHT22;64400;44.762;37.698;2022-12-24T17:20:41;9.22;94.85
75782;DHT22;64400;44.762;37.698;2022-12-24T17:23:09;9.21;94.24
75782;DHT22;64400;44.762;37.698;2022-12-24T17:25:37;9.17;93.41
75782;DHT22;64400;44.762;37.698;2022-12-24T17:28:05;9.10;94.01
75782;DHT22;64400;44.762;37.698;2022-12-24T17:30:33;9.07;93.98
75782;DHT22;64400;44.762;37.698;2022-12-24T17:33:01;8.96;94.30
75782;DHT22;64400;44.762;37.698;2022-12-24T17:35:33;8.93;94.49
75782;DHT22;64400;44.762;37.698;2022-12-24T17:38:01;8.90;95.04
75782;DHT22;64400;44.762;37.698;2022-12-24T17:40:29;8.88;95.16
75782;DHT22;64400;44.762;37.698;2022-12-24T17:42:56;8.87;95.10
75782;DHT22;64400;44.762;37.698;2022-12-24T17:45:24;8.81;96.12
75782;DHT22;64400;44.762;37.698;2022-12-24T17:47:59;8.82;96.02
75782;DHT22;64400;44.762;37.698;2022-12-24T17:50:27;8.80;95.92
75782;DHT22;64400;44.762;37.698;2022-12-24T17:52:55;8.82;95.99
75782;DHT22;64400;44.762;37.698;2022-12-24T17:55:23;8.83;95.62
75782;DHT22;64400;44.762;37.698;2022-12-24T17:57:51;8.79;96.29
75782;DHT22;64400;44.762;37.698;2022-12-24T18:00:19;8.78;95.80
75782;DHT22;64400;44.762;37.698;2022-12-24T18:02:47;8.77;95.84
75782;DHT22;64400;44.762;37.698;2022-12-24T18:05:15;8.75;95.66
75782;DHT22;64400;44.762;37.698;2022-12-24T18:07:43;8.76;95.04
75782;DHT22;64400;44.762;37.698;2022-12-24T18:10:11;8.76;95.05
75782;DHT22;64400;44.762;37.698;2022-12-24T18:12:39;8.73;95.88
75782;DHT22;64400;44.762;37.698;2022-12-24T18:15:08;8.70;95.87
75782;DHT22;64400;44.762;37.698;2022-12-24T18:17:36;8.63;96.23
75782;DHT22;64400;44.762;37.698;2022-12-24T18:20:05;8.61;96.49
75782;DHT22;64400;44.762;37.698;2022-12-24T18:22:34;8.57;96.67
75782;DHT22;64400;44.762;37.698;2022-12-24T18:25:02;8.57;96.90
75782;DHT22;64400;44.762;37.698;2022-12-24T18:27:33;8.57;97.20
75782;DHT22;64400;44.762;37.698;2022-12-24T18:30:01;8.53;97.58
75782;DHT22;64400;44.762;37.698;2022-12-24T18:32:30;8.57;96.82
75782;DHT22;64400;44.762;37.698;2022-12-24T18:34:58;8.60;97.12
75782;DHT22;64400;44.762;37.698;2022-12-24T18:37:26;8.61;97.25
75782;DHT22;64400;44.762;37.698;2022-12-24T18:39:54;8.62;97.03
75782;DHT22;64400;44.762;37.698;2022-12-24T18:42:22;8.64;96.31
75782;DHT22;64400;44.762;37.698;2022-12-24T18:44:50;8.67;96.43
75782;DHT22;64400;44.762;37.698;2022-12-24T18:47:18;8.70;96.67
75782;DHT22;64400;44.762;37.698;2022-12-24T18:49:45;8.68;96.20
75782;DHT22;64400;44.762;37.698;2022-12-24T18:52:13;8.68;96.49
75782;DHT22;64400;44.762;37.698;2022-12-24T18:54:49;8.70;96.97
75782;DHT22;64400;44.762;37.698;2022-12-24T18:57:17;8.71;96.42
75782;DHT22;64400;44.762;37.698;2022-12-24T18:59:45;8.72;96.93
75782;DHT22;64400;44.762;37.698;2022-12-24T19:02:12;8.73;96.12
75782;DHT22;64400;44.762;37.698;2022-12-24T19:04:40;8.76;96.46
75782;DHT22;64400;44.762;37.698;2022-12-24T19:07:08;8.78;96.80
75782;DHT22;64400;44.762;37.698;2022-12-24T19:09:38;8.77;96.97
75782;DHT22;64400;44.762;37.698;2022-12-24T19:12:06;8.75;97.50
75782;DHT22;64400;44.762;37.698;2022-12-24T19:14:34;8.75;98.03
75782;DHT22;64400;44.762;37.698;2022-12-24T19:17:02;8.76;96.71
75782;DHT22;64400;44.762;37.698;2022-12-24T19:19:30;8.80;97.10
75782;DHT22;64400;44.762;37.698;2022-12-24T19:21:58;8.80;96.89
75782;DHT22;64400;44.762;37.698;2022-12-24T19:24:27;8.79;97.23
75782;DHT22;64400;44.762;37.698;2022-12-24T19:26:55;8.79;96.69
75782;DHT22;64400;44.762;37.698;2022-12-24T19:29:23;8.79;97.11
75782;DHT22;64400;44.762;37.698;2022-12-24T19:31:50;8.79;97.37
75782;DHT22;64400;44.762;37.698;2022-12-24T19:34:19;8.80;96.81
75782;DHT22;64400;44.762;37.698;2022-12-24T19:36:47;8.81;97.05